sensor_id;sensor_type;location;lat;lon;timestamp;P1;durP1;ratioP1;P2;durP2;ratioP2
7515;SDS011;3799;47.184;8.538;2023-04-15T00:00:56;1.92;;;0.47;;
7515;SDS011;3799;47.184;8.538;2023-04-15T00:03:25;1.20;;;0.28;;
7515;SDS011;3799;47.184;8.538;2023-04-15T00:05:53;2.28;;;0.32;;
7515;SDS011;3799;47.184;8.538;2023-04-15T00:08:20;2.20;;;0.30;;
7515;SDS011;3799;47.184;8.538;2023-04-15T00:10:47;2.28;;;0.20;;
7515;SDS011;3799;47.184;8.538;2023-04-15T00:13:14;3.33;;;0.25;;
7515;SDS011;3799;47.184;8.538;2023-04-15T00:15:42;2.90;;;0.47;;
7515;SDS011;3799;47.184;8.538;2023-04-15T00:18:09;1.35;;;0.32;;
7515;SDS011;3799;47.184;8.538;2023-04-15T00:20:36;1.50;;;0.20;;
7515;SDS011;3799;47.184;8.538;2023-04-15T00:23:03;2.67;;;0.38;;
7515;SDS011;3799;47.184;8.538;2023-04-15T00:25:31;1.33;;;0.25;;
7515;SDS011;3799;47.184;8.538;2023-04-15T00:27:58;0.77;;;0.20;;
7515;SDS011;3799;47.184;8.538;2023-04-15T00:30:26;0.98;;;0.20;;
7515;SDS011;3799;47.184;8.538;2023-04-15T00:32:53;2.95;;;0.30;;
7515;SDS011;3799;47.184;8.538;2023-04-15T00:35:21;0.88;;;0.22;;
7515;SDS011;3799;47.184;8.538;2023-04-15T00:37:49;0.57;;;0.10;;
7515;SDS011;3799;47.184;8.538;2023-04-15T00:40:17;0.85;;;0.22;;
7515;SDS011;3799;47.184;8.538;2023-04-15T00:42:46;1.10;;;0.20;;
7515;SDS011;3799;47.184;8.538;2023-04-15T00:45:14;1.15;;;0.30;;
7515;SDS011;3799;47.184;8.538;2023-04-15T00:47:42;3.03;;;0.88;;
7515;SDS011;3799;47.184;8.538;2023-04-15T00:50:10;2.92;;;0.20;;
7515;SDS011;3799;47.184;8.538;2023-04-15T00:52:38;1.52;;;0.20;;
7515;SDS011;3799;47.184;8.538;2023-04-15T00:55:06;1.27;;;0.20;;
7515;SDS011;3799;47.184;8.538;2023-04-15T00:57:34;1.75;;;0.40;;
7515;SDS011;3799;47.184;8.538;2023-04-15T01:00:02;1.33;;;0.17;;
7515;SDS011;3799;47.184;8.538;2023-04-15T01:02:31;2.28;;;0.20;;
7515;SDS011;3799;47.184;8.538;2023-04-15T01:04:59;2.38;;;0.30;;
7515;SDS011;3799;47.184;8.538;2023-04-15T01:07:30;0.70;;;0.10;;
7515;SDS011;3799;47.184;8.538;2023-04-15T01:10:08;3.53;;;0.32;;
7515;SDS011;3799;47.184;8.538;2023-04-15T01:12:35;0.85;;;0.25;;
7515;SDS011;3799;47.184;8.538;2023-04-15T01:15:03;3.78;;;0.28;;
7515;SDS011;3799;47.184;8.538;2023-04-15T01:17:31;3.95;;;0.38;;
7515;SDS011;3799;47.184;8.538;2023-04-15T01:19:58;3.10;;;0.20;;
7515;SDS011;3799;47.184;8.538;2023-04-15T01:22:27;1.83;;;0.30;;
7515;SDS011;3799;47.184;8.538;2023-04-15T01:24:57;2.03;;;0.30;;
7515;SDS011;3799;47.184;8.538;2023-04-15T01:27:37;1.48;;;0.25;;
7515;SDS011;3799;47.184;8.538;2023-04-15T01:30:11;1.30;;;0.25;;
7515;SDS011;3799;47.184;8.538;2023-04-15T01:32:38;2.10;;;0.20;;
7515;SDS011;3799;47.184;8.538;2023-04-15T01:35:05;2.35;;;0.13;;
7515;SDS011;3799;47.184;8.538;2023-04-15T01:37:47;2.10;;;0.30;;
7515;SDS011;3799;47.184;8.538;2023-04-15T01:40:15;1.35;;;0.13;;
7515;SDS011;3799;47.184;8.538;2023-04-15T01:42:43;0.88;;;0.30;;
7515;SDS011;3799;47.184;8.538;2023-04-15T01:45:10;1.48;;;0.30;;
7515;SDS011;3799;47.184;8.538;2023-04-15T01:47:39;3.05;;;0.30;;
7515;SDS011;3799;47.184;8.538;2023-04-15T01:50:06;2.30;;;0.30;;
7515;SDS011;3799;47.184;8.538;2023-04-15T01:52:34;4.20;;;0.30;;
7515;SDS011;3799;47.184;8.538;2023-04-15T01:55:01;1.98;;;0.38;;
7515;SDS011;3799;47.184;8.538;2023-04-15T01:57:28;1.15;;;0.03;;
7515;SDS011;3799;47.184;8.538;2023-04-15T02:00:02;1.73;;;0.30;;
7515;SDS011;3799;47.184;8.538;2023-04-15T02:02:30;2.20;;;0.20;;
7515;SDS011;3799;47.184;8.538;2023-04-15T02:05:00;1.08;;;0.15;;
7515;SDS011;3799;47.184;8.538;2023-04-15T02:07:27;4.97;;;0.40;;
7515;SDS011;3799;47.184;8.538;2023-04-15T02:09:57;1.25;;;0.20;;
7515;SDS011;3799;47.184;8.538;2023-04-15T02:12:25;1.73;;;0.30;;
7515;SDS011;3799;47.184;8.538;2023-04-15T02:14:52;2.65;;;0.30;;
7515;SDS011;3799;47.184;8.538;2023-04-15T02:17:19;2.03;;;0.30;;
7515;SDS011;3799;47.184;8.538;2023-04-15T02:19:46;2.25;;;0.30;;
7515;SDS011;3799;47.184;8.538;2023-04-15T02:22:14;1.95;;;0.20;;
7515;SDS011;3799;47.184;8.538;2023-04-15T02:24:44;2.00;;;0.38;;
7515;SDS011;3799;47.184;8.538;2023-04-15T02:27:15;1.85;;;0.50;;
7515;SDS011;3799;47.184;8.538;2023-04-15T02:29:44;1.80;;;0.82;;
7515;SDS011;3799;47.184;8.538;2023-04-15T02:32:16;2.78;;;0.38;;
7515;SDS011;3799;47.184;8.538;2023-04-15T02:34:51;1.20;;;0.20;;
7515;SDS011;3799;47.184;8.538;2023-04-15T02:37:21;2.05;;;0.52;;
7515;SDS011;3799;47.184;8.538;2023-04-15T02:39:48;1.00;;;0.43;;
7515;SDS011;3799;47.184;8.538;2023-04-15T02:42:16;1.63;;;0.50;;
7515;SDS011;3799;47.184;8.538;2023-04-15T02:44:43;1.70;;;0.30;;
7515;SDS011;3799;47.184;8.538;2023-04-15T02:47:10;2.35;;;0.63;;
7515;SDS011;3799;47.184;8.538;2023-04-15T02:49:37;0.95;;;0.22;;
7515;SDS011;3799;47.184;8.538;2023-04-15T02:52:05;2.67;;;0.30;;
7515;SDS011;3799;47.184;8.538;2023-04-15T02:54:33;2.45;;;0.30;;
7515;SDS011;3799;47.184;8.538;2023-04-15T02:57:00;1.33;;;0.30;;
7515;SDS011;3799;47.184;8.538;2023-04-15T02:59:28;4.10;;;0.32;;
7515;SDS011;3799;47.184;8.538;2023-04-15T03:01:56;5.53;;;0.40;;
7515;SDS011;3799;47.184;8.538;2023-04-15T03:04:26;2.00;;;0.20;;
7515;SDS011;3799;47.184;8.538;2023-04-15T03:06:56;3.45;;;0.47;;
7515;SDS011;3799;47.184;8.538;2023-04-15T03:09:23;1.95;;;0.30;;
7515;SDS011;3799;47.184;8.538;2023-04-15T03:11:51;2.38;;;0.32;;
7515;SDS011;3799;47.184;8.538;2023-04-15T03:14:20;1.00;;;0.32;;
7515;SDS011;3799;47.184;8.538;2023-04-15T03:16:47;4.45;;;0.40;;
7515;SDS011;3799;47.184;8.538;2023-04-15T03:19:22;2.22;;;0.45;;
7515;SDS011;3799;47.184;8.538;2023-04-15T03:21:50;1.00;;;0.35;;
7515;SDS011;3799;47.184;8.538;2023-04-15T03:24:17;2.10;;;0.43;;
7515;SDS011;3799;47.184;8.538;2023-04-15T03:26:46;2.15;;;0.22;;
7515;SDS011;3799;47.184;8.538;2023-04-15T03:29:13;1.30;;;0.28;;
7515;SDS011;3799;47.184;8.538;2023-04-15T03:31:41;1.67;;;0.50;;
7515;SDS011;3799;47.184;8.538;2023-04-15T03:34:08;2.67;;;0.28;;
7515;SDS011;3799;47.184;8.538;2023-04-15T03:36:36;2.38;;;0.32;;
7515;SDS011;3799;47.184;8.538;2023-04-15T03:39:03;3.30;;;0.43;;
7515;SDS011;3799;47.184;8.538;2023-04-15T03:41:31;2.70;;;0.57;;
7515;SDS011;3799;47.184;8.538;2023-04-15T03:43:58;1.85;;;0.40;;
7515;SDS011;3799;47.184;8.538;2023-04-15T03:46:26;2.13;;;0.35;;
7515;SDS011;3799;47.184;8.538;2023-04-15T03:48:53;2.97;;;0.40;;
7515;SDS011;3799;47.184;8.538;2023-04-15T03:51:21;1.52;;;0.35;;
7515;SDS011;3799;47.184;8.538;2023-04-15T03:53:48;2.17;;;0.40;;
7515;SDS011;3799;47.184;8.538;2023-04-15T03:56:15;1.75;;;0.30;;
7515;SDS011;3799;47.184;8.538;2023-04-15T03:58:42;3.17;;;0.30;;
7515;SDS011;3799;47.184;8.538;2023-04-15T04:01:10;0.82;;;0.30;;
7515;SDS011;3799;47.184;8.538;2023-04-15T04:03:37;0.93;;;0.22;;
7515;SDS011;3799;47.184;8.538;2023-04-15T04:06:06;1.98;;;0.75;;
7515;SDS011;3799;47.184;8.538;2023-04-15T04:08:34;2.53;;;0.70;;
7515;SDS011;3799;47.184;8.538;2023-04-15T04:11:01;1.83;;;0.22;;
7515;SDS011;3799;47.184;8.538;2023-04-15T04:13:29;2.50;;;0.50;;
7515;SDS011;3799;47.184;8.538;2023-04-15T04:15:56;2.75;;;0.52;;
7515;SDS011;3799;47.184;8.538;2023-04-15T04:18:27;1.30;;;0.40;;
7515;SDS011;3799;47.184;8.538;2023-04-15T04:20:57;2.90;;;0.45;;
7515;SDS011;3799;47.184;8.538;2023-04-15T04:23:24;2.80;;;0.68;;
7515;SDS011;3799;47.184;8.538;2023-04-15T04:25:51;3.75;;;0.80;;
7515;SDS011;3799;47.184;8.538;2023-04-15T04:28:19;1.17;;;0.40;;
7515;SDS011;3799;47.184;8.538;2023-04-15T04:30:46;1.58;;;0.50;;
7515;SDS011;3799;47.184;8.538;2023-04-15T04:33:13;2.03;;;0.57;;
7515;SDS011;3799;47.184;8.538;2023-04-15T04:35:41;4.70;;;0.98;;
7515;SDS011;3799;47.184;8.538;2023-04-15T04:38:09;1.30;;;0.50;;
7515;SDS011;3799;47.184;8.538;2023-04-15T04:40:36;1.20;;;0.40;;
7515;SDS011;3799;47.184;8.538;2023-04-15T04:43:03;2.28;;;0.40;;
7515;SDS011;3799;47.184;8.538;2023-04-15T04:45:31;2.45;;;0.38;;
7515;SDS011;3799;47.184;8.538;2023-04-15T04:47:58;2.42;;;0.30;;
7515;SDS011;3799;47.184;8.538;2023-04-15T04:50:26;1.27;;;0.38;;
7515;SDS011;3799;47.184;8.538;2023-04-15T04:52:53;1.67;;;0.45;;
7515;SDS011;3799;47.184;8.538;2023-04-15T04:55:21;1.02;;;0.43;;
7515;SDS011;3799;47.184;8.538;2023-04-15T04:57:48;1.35;;;0.38;;
7515;SDS011;3799;47.184;8.538;2023-04-15T05:00:15;2.42;;;0.70;;
7515;SDS011;3799;47.184;8.538;2023-04-15T05:02:43;2.13;;;0.90;;
7515;SDS011;3799;47.184;8.538;2023-04-15T05:05:11;1.48;;;0.25;;
7515;SDS011;3799;47.184;8.538;2023-04-15T05:07:39;1.70;;;0.45;;
7515;SDS011;3799;47.184;8.538;2023-04-15T05:10:06;1.25;;;0.28;;
7515;SDS011;3799;47.184;8.538;2023-04-15T05:12:35;1.25;;;0.30;;
7515;SDS011;3799;47.184;8.538;2023-04-15T05:15:04;2.80;;;0.65;;
7515;SDS011;3799;47.184;8.538;2023-04-15T05:17:34;2.50;;;0.30;;
7515;SDS011;3799;47.184;8.538;2023-04-15T05:20:02;1.75;;;0.43;;
7515;SDS011;3799;47.184;8.538;2023-04-15T05:22:29;2.17;;;0.60;;
7515;SDS011;3799;47.184;8.538;2023-04-15T05:25:00;1.33;;;0.30;;
7515;SDS011;3799;47.184;8.538;2023-04-15T05:27:27;1.13;;;0.22;;
7515;SDS011;3799;47.184;8.538;2023-04-15T05:29:55;1.05;;;0.38;;
7515;SDS011;3799;47.184;8.538;2023-04-15T05:32:36;1.20;;;0.40;;
7515;SDS011;3799;47.184;8.538;2023-04-15T05:35:03;2.42;;;0.57;;
7515;SDS011;3799;47.184;8.538;2023-04-15T05:40:01;2.67;;;0.43;;
7515;SDS011;3799;47.184;8.538;2023-04-15T05:42:28;2.20;;;0.65;;
7515;SDS011;3799;47.184;8.538;2023-04-15T05:44:58;1.83;;;0.32;;
7515;SDS011;3799;47.184;8.538;2023-04-15T05:47:27;2.15;;;0.50;;
7515;SDS011;3799;47.184;8.538;2023-04-15T05:49:54;2.00;;;0.55;;
7515;SDS011;3799;47.184;8.538;2023-04-15T05:52:21;2.45;;;0.60;;
7515;SDS011;3799;47.184;8.538;2023-04-15T05:54:49;4.05;;;0.70;;
7515;SDS011;3799;47.184;8.538;2023-04-15T05:57:17;2.95;;;0.70;;
7515;SDS011;3799;47.184;8.538;2023-04-15T05:59:44;0.63;;;0.17;;
7515;SDS011;3799;47.184;8.538;2023-04-15T06:02:11;2.92;;;0.60;;
7515;SDS011;3799;47.184;8.538;2023-04-15T06:04:44;2.08;;;0.40;;
7515;SDS011;3799;47.184;8.538;2023-04-15T06:07:11;3.30;;;0.75;;
7515;SDS011;3799;47.184;8.538;2023-04-15T06:09:43;2.30;;;0.45;;
7515;SDS011;3799;47.184;8.538;2023-04-15T06:12:11;2.08;;;0.90;;
7515;SDS011;3799;47.184;8.538;2023-04-15T06:14:39;2.97;;;0.60;;
7515;SDS011;3799;47.184;8.538;2023-04-15T06:17:20;4.68;;;0.60;;
7515;SDS011;3799;47.184;8.538;2023-04-15T06:19:47;2.13;;;0.60;;
7515;SDS011;3799;47.184;8.538;2023-04-15T06:22:19;2.88;;;0.88;;
7515;SDS011;3799;47.184;8.538;2023-04-15T06:24:46;2.75;;;0.65;;
7515;SDS011;3799;47.184;8.538;2023-04-15T06:27:14;2.90;;;0.52;;
7515;SDS011;3799;47.184;8.538;2023-04-15T06:29:41;3.58;;;0.90;;
7515;SDS011;3799;47.184;8.538;2023-04-15T06:32:09;2.95;;;0.60;;
7515;SDS011;3799;47.184;8.538;2023-04-15T06:34:38;3.28;;;0.73;;
7515;SDS011;3799;47.184;8.538;2023-04-15T06:37:05;2.92;;;0.85;;
7515;SDS011;3799;47.184;8.538;2023-04-15T06:39:33;2.20;;;0.70;;
7515;SDS011;3799;47.184;8.538;2023-04-15T06:42:00;3.63;;;0.80;;
7515;SDS011;3799;47.184;8.538;2023-04-15T06:44:29;2.47;;;1.00;;
7515;SDS011;3799;47.184;8.538;2023-04-15T06:46:59;1.00;;;0.40;;
7515;SDS011;3799;47.184;8.538;2023-04-15T06:49:27;4.32;;;0.80;;
7515;SDS011;3799;47.184;8.538;2023-04-15T06:51:54;2.70;;;0.60;;
7515;SDS011;3799;47.184;8.538;2023-04-15T06:54:22;4.30;;;0.68;;
7515;SDS011;3799;47.184;8.538;2023-04-15T06:56:50;3.60;;;0.80;;
7515;SDS011;3799;47.184;8.538;2023-04-15T06:59:17;2.17;;;0.65;;
7515;SDS011;3799;47.184;8.538;2023-04-15T07:01:45;2.63;;;0.80;;
7515;SDS011;3799;47.184;8.538;2023-04-15T07:04:13;2.72;;;0.70;;
7515;SDS011;3799;47.184;8.538;2023-04-15T07:06:40;2.38;;;0.50;;
7515;SDS011;3799;47.184;8.538;2023-04-15T07:09:08;2.53;;;0.65;;
7515;SDS011;3799;47.184;8.538;2023-04-15T07:11:35;1.42;;;0.30;;
7515;SDS011;3799;47.184;8.538;2023-04-15T07:14:02;2.70;;;0.60;;
7515;SDS011;3799;47.184;8.538;2023-04-15T07:16:30;3.53;;;0.80;;
7515;SDS011;3799;47.184;8.538;2023-04-15T07:18:58;2.15;;;0.50;;
7515;SDS011;3799;47.184;8.538;2023-04-15T07:21:26;2.92;;;0.32;;
7515;SDS011;3799;47.184;8.538;2023-04-15T07:23:53;1.05;;;0.20;;
7515;SDS011;3799;47.184;8.538;2023-04-15T07:26:20;1.58;;;0.55;;
7515;SDS011;3799;47.184;8.538;2023-04-15T07:28:49;2.85;;;0.35;;
7515;SDS011;3799;47.184;8.538;2023-04-15T07:31:16;2.70;;;0.43;;
7515;SDS011;3799;47.184;8.538;2023-04-15T07:33:44;2.20;;;0.35;;
7515;SDS011;3799;47.184;8.538;2023-04-15T07:36:12;3.03;;;0.40;;
7515;SDS011;3799;47.184;8.538;2023-04-15T07:38:40;1.75;;;0.40;;
7515;SDS011;3799;47.184;8.538;2023-04-15T07:41:08;0.98;;;0.30;;
7515;SDS011;3799;47.184;8.538;2023-04-15T07:43:36;2.03;;;0.30;;
7515;SDS011;3799;47.184;8.538;2023-04-15T07:46:03;2.67;;;0.43;;
7515;SDS011;3799;47.184;8.538;2023-04-15T07:48:31;1.55;;;0.30;;
7515;SDS011;3799;47.184;8.538;2023-04-15T07:51:02;1.35;;;0.50;;
7515;SDS011;3799;47.184;8.538;2023-04-15T07:53:29;1.60;;;0.55;;
7515;SDS011;3799;47.184;8.538;2023-04-15T07:55:58;2.75;;;0.80;;
7515;SDS011;3799;47.184;8.538;2023-04-15T07:58:26;3.17;;;0.40;;
7515;SDS011;3799;47.184;8.538;2023-04-15T08:00:53;1.30;;;0.30;;
7515;SDS011;3799;47.184;8.538;2023-04-15T08:03:21;2.45;;;0.90;;
7515;SDS011;3799;47.184;8.538;2023-04-15T08:05:49;1.92;;;0.43;;
7515;SDS011;3799;47.184;8.538;2023-04-15T08:08:17;2.97;;;0.90;;
7515;SDS011;3799;47.184;8.538;2023-04-15T08:10:44;2.33;;;1.00;;
7515;SDS011;3799;47.184;8.538;2023-04-15T08:13:12;2.97;;;0.95;;
7515;SDS011;3799;47.184;8.538;2023-04-15T08:15:39;3.47;;;0.93;;
7515;SDS011;3799;47.184;8.538;2023-04-15T08:18:07;4.03;;;0.60;;
7515;SDS011;3799;47.184;8.538;2023-04-15T08:20:34;2.28;;;0.60;;
7515;SDS011;3799;47.184;8.538;2023-04-15T08:23:01;3.70;;;1.17;;
7515;SDS011;3799;47.184;8.538;2023-04-15T08:25:28;4.78;;;1.23;;
7515;SDS011;3799;47.184;8.538;2023-04-15T08:27:56;2.63;;;0.80;;
7515;SDS011;3799;47.184;8.538;2023-04-15T08:30:23;1.77;;;0.63;;
7515;SDS011;3799;47.184;8.538;2023-04-15T08:32:50;2.45;;;0.88;;
7515;SDS011;3799;47.184;8.538;2023-04-15T08:35:18;3.15;;;1.05;;
7515;SDS011;3799;47.184;8.538;2023-04-15T08:37:45;3.05;;;1.00;;
7515;SDS011;3799;47.184;8.538;2023-04-15T08:40:12;4.90;;;0.93;;
7515;SDS011;3799;47.184;8.538;2023-04-15T08:42:43;3.58;;;1.20;;
7515;SDS011;3799;47.184;8.538;2023-04-15T08:45:14;4.38;;;0.68;;
7515;SDS011;3799;47.184;8.538;2023-04-15T08:47:43;5.05;;;0.77;;
7515;SDS011;3799;47.184;8.538;2023-04-15T08:50:13;6.15;;;1.30;;
7515;SDS011;3799;47.184;8.538;2023-04-15T08:52:41;5.53;;;0.85;;
7515;SDS011;3799;47.184;8.538;2023-04-15T08:55:09;1.73;;;0.60;;
7515;SDS011;3799;47.184;8.538;2023-04-15T08:57:37;2.70;;;0.65;;
7515;SDS011;3799;47.184;8.538;2023-04-15T09:00:05;3.58;;;0.50;;
7515;SDS011;3799;47.184;8.538;2023-04-15T09:02:33;3.15;;;0.40;;
7515;SDS011;3799;47.184;8.538;2023-04-15T09:05:01;2.40;;;0.32;;
7515;SDS011;3799;47.184;8.538;2023-04-15T09:07:35;1.75;;;0.38;;
7515;SDS011;3799;47.184;8.538;2023-04-15T09:10:02;2.28;;;0.50;;
7515;SDS011;3799;47.184;8.538;2023-04-15T09:12:33;2.67;;;0.63;;
7515;SDS011;3799;47.184;8.538;2023-04-15T09:15:02;3.30;;;0.60;;
7515;SDS011;3799;47.184;8.538;2023-04-15T09:17:33;1.25;;;0.50;;
7515;SDS011;3799;47.184;8.538;2023-04-15T09:20:19;2.90;;;0.25;;
7515;SDS011;3799;47.184;8.538;2023-04-15T09:22:47;1.30;;;0.30;;
7515;SDS011;3799;47.184;8.538;2023-04-15T09:27:53;6.45;;;0.63;;
7515;SDS011;3799;47.184;8.538;2023-04-15T09:30:28;1.85;;;0.57;;
7515;SDS011;3799;47.184;8.538;2023-04-15T09:33:00;1.13;;;0.30;;
7515;SDS011;3799;47.184;8.538;2023-04-15T09:35:28;2.75;;;0.50;;
7515;SDS011;3799;47.184;8.538;2023-04-15T09:38:03;1.95;;;0.40;;
7515;SDS011;3799;47.184;8.538;2023-04-15T09:40:39;2.28;;;0.40;;
7515;SDS011;3799;47.184;8.538;2023-04-15T09:43:10;2.22;;;0.57;;
7515;SDS011;3799;47.184;8.538;2023-04-15T09:45:40;4.43;;;0.32;;
7515;SDS011;3799;47.184;8.538;2023-04-15T09:48:30;2.88;;;0.63;;
7515;SDS011;3799;47.184;8.538;2023-04-15T09:50:59;3.47;;;0.60;;
7515;SDS011;3799;47.184;8.538;2023-04-15T09:53:27;7.40;;;1.27;;
7515;SDS011;3799;47.184;8.538;2023-04-15T09:55:58;1.77;;;0.25;;
7515;SDS011;3799;47.184;8.538;2023-04-15T09:58:31;3.65;;;0.68;;
7515;SDS011;3799;47.184;8.538;2023-04-15T10:01:04;2.58;;;0.80;;
7515;SDS011;3799;47.184;8.538;2023-04-15T10:03:34;1.85;;;0.30;;
7515;SDS011;3799;47.184;8.538;2023-04-15T10:06:03;2.70;;;0.35;;
7515;SDS011;3799;47.184;8.538;2023-04-15T10:08:31;3.17;;;0.40;;
7515;SDS011;3799;47.184;8.538;2023-04-15T10:11:03;3.05;;;0.40;;
7515;SDS011;3799;47.184;8.538;2023-04-15T10:13:32;2.90;;;0.57;;
7515;SDS011;3799;47.184;8.538;2023-04-15T10:18:42;5.18;;;1.27;;
7515;SDS011;3799;47.184;8.538;2023-04-15T10:21:11;6.47;;;0.90;;
7515;SDS011;3799;47.184;8.538;2023-04-15T10:23:44;3.58;;;0.45;;
7515;SDS011;3799;47.184;8.538;2023-04-15T10:26:11;4.10;;;0.68;;
7515;SDS011;3799;47.184;8.538;2023-04-15T10:28:40;3.65;;;0.70;;
7515;SDS011;3799;47.184;8.538;2023-04-15T10:31:08;3.22;;;0.50;;
7515;SDS011;3799;47.184;8.538;2023-04-15T10:33:39;2.20;;;0.82;;
7515;SDS011;3799;47.184;8.538;2023-04-15T10:36:08;1.17;;;0.30;;
7515;SDS011;3799;47.184;8.538;2023-04-15T10:38:40;3.58;;;0.75;;
7515;SDS011;3799;47.184;8.538;2023-04-15T10:43:46;3.05;;;0.50;;
7515;SDS011;3799;47.184;8.538;2023-04-15T10:46:35;2.67;;;0.68;;
7515;SDS011;3799;47.184;8.538;2023-04-15T10:49:13;2.83;;;0.45;;
7515;SDS011;3799;47.184;8.538;2023-04-15T10:51:43;2.10;;;0.60;;
7515;SDS011;3799;47.184;8.538;2023-04-15T10:56:43;1.88;;;0.45;;
7515;SDS011;3799;47.184;8.538;2023-04-15T10:59:13;3.10;;;0.68;;
7515;SDS011;3799;47.184;8.538;2023-04-15T11:01:48;3.17;;;0.93;;
7515;SDS011;3799;47.184;8.538;2023-04-15T11:12:39;1.60;;;0.45;;
7515;SDS011;3799;47.184;8.538;2023-04-15T11:15:27;5.35;;;0.93;;
7515;SDS011;3799;47.184;8.538;2023-04-15T11:20:40;2.75;;;0.80;;
7515;SDS011;3799;47.184;8.538;2023-04-15T11:23:13;5.15;;;0.50;;
7515;SDS011;3799;47.184;8.538;2023-04-15T11:25:42;1.77;;;0.50;;
7515;SDS011;3799;47.184;8.538;2023-04-15T11:28:11;1.75;;;0.60;;
7515;SDS011;3799;47.184;8.538;2023-04-15T11:30:39;3.00;;;0.70;;
7515;SDS011;3799;47.184;8.538;2023-04-15T11:33:08;2.47;;;0.82;;
7515;SDS011;3799;47.184;8.538;2023-04-15T11:35:40;4.13;;;0.63;;
7515;SDS011;3799;47.184;8.538;2023-04-15T11:38:11;2.28;;;0.70;;
7515;SDS011;3799;47.184;8.538;2023-04-15T11:40:40;1.95;;;0.60;;
7515;SDS011;3799;47.184;8.538;2023-04-15T11:43:13;3.30;;;0.75;;
7515;SDS011;3799;47.184;8.538;2023-04-15T11:45:54;4.20;;;0.77;;
7515;SDS011;3799;47.184;8.538;2023-04-15T11:48:30;2.05;;;0.60;;
7515;SDS011;3799;47.184;8.538;2023-04-15T11:51:02;4.47;;;0.98;;
7515;SDS011;3799;47.184;8.538;2023-04-15T11:56:08;3.15;;;0.80;;
7515;SDS011;3799;47.184;8.538;2023-04-15T11:58:36;5.18;;;1.08;;
7515;SDS011;3799;47.184;8.538;2023-04-15T12:01:05;2.90;;;0.90;;
7515;SDS011;3799;47.184;8.538;2023-04-15T12:03:37;2.15;;;0.80;;
7515;SDS011;3799;47.184;8.538;2023-04-15T12:06:14;2.67;;;0.73;;
7515;SDS011;3799;47.184;8.538;2023-04-15T12:08:54;3.10;;;0.80;;
7515;SDS011;3799;47.184;8.538;2023-04-15T12:13:54;1.85;;;0.60;;
7515;SDS011;3799;47.184;8.538;2023-04-15T12:16:23;3.05;;;0.80;;
7515;SDS011;3799;47.184;8.538;2023-04-15T12:18:54;1.42;;;0.55;;
7515;SDS011;3799;47.184;8.538;2023-04-15T12:21:24;5.88;;;0.80;;
7515;SDS011;3799;47.184;8.538;2023-04-15T12:29:03;1.70;;;0.70;;
7515;SDS011;3799;47.184;8.538;2023-04-15T12:31:38;4.57;;;0.98;;
7515;SDS011;3799;47.184;8.538;2023-04-15T12:34:27;4.90;;;0.88;;
7515;SDS011;3799;47.184;8.538;2023-04-15T12:36:57;2.75;;;0.80;;
7515;SDS011;3799;47.184;8.538;2023-04-15T12:39:29;2.70;;;0.73;;
7515;SDS011;3799;47.184;8.538;2023-04-15T12:44:29;2.25;;;0.75;;
7515;SDS011;3799;47.184;8.538;2023-04-15T12:46:57;2.80;;;0.90;;
7515;SDS011;3799;47.184;8.538;2023-04-15T12:49:25;2.42;;;1.00;;
7515;SDS011;3799;47.184;8.538;2023-04-15T12:51:55;3.40;;;0.63;;
7515;SDS011;3799;47.184;8.538;2023-04-15T12:54:23;4.30;;;1.00;;
7515;SDS011;3799;47.184;8.538;2023-04-15T12:56:51;2.70;;;1.00;;
7515;SDS011;3799;47.184;8.538;2023-04-15T12:59:20;4.07;;;1.20;;
7515;SDS011;3799;47.184;8.538;2023-04-15T13:01:50;5.55;;;1.30;;
7515;SDS011;3799;47.184;8.538;2023-04-15T13:04:22;2.80;;;0.82;;
7515;SDS011;3799;47.184;8.538;2023-04-15T13:06:50;2.85;;;1.25;;
7515;SDS011;3799;47.184;8.538;2023-04-15T13:09:18;4.28;;;1.00;;
7515;SDS011;3799;47.184;8.538;2023-04-15T13:11:46;3.05;;;1.10;;
7515;SDS011;3799;47.184;8.538;2023-04-15T13:14:15;2.33;;;0.70;;
7515;SDS011;3799;47.184;8.538;2023-04-15T13:16:42;3.13;;;1.10;;
7515;SDS011;3799;47.184;8.538;2023-04-15T13:19:10;1.63;;;0.65;;
7515;SDS011;3799;47.184;8.538;2023-04-15T13:21:37;2.67;;;1.05;;
7515;SDS011;3799;47.184;8.538;2023-04-15T13:24:05;2.08;;;0.80;;
7515;SDS011;3799;47.184;8.538;2023-04-15T13:26:34;1.95;;;0.65;;
7515;SDS011;3799;47.184;8.538;2023-04-15T13:29:02;2.58;;;1.02;;
7515;SDS011;3799;47.184;8.538;2023-04-15T13:31:30;2.25;;;0.90;;
7515;SDS011;3799;47.184;8.538;2023-04-15T13:33:57;2.60;;;0.88;;
7515;SDS011;3799;47.184;8.538;2023-04-15T13:36:24;2.90;;;0.70;;
7515;SDS011;3799;47.184;8.538;2023-04-15T13:38:53;3.35;;;1.08;;
7515;SDS011;3799;47.184;8.538;2023-04-15T13:41:20;3.42;;;1.17;;
7515;SDS011;3799;47.184;8.538;2023-04-15T13:43:47;1.55;;;0.70;;
7515;SDS011;3799;47.184;8.538;2023-04-15T13:46:15;2.90;;;0.57;;
7515;SDS011;3799;47.184;8.538;2023-04-15T13:48:42;1.88;;;0.60;;
7515;SDS011;3799;47.184;8.538;2023-04-15T13:51:09;1.92;;;0.60;;
7515;SDS011;3799;47.184;8.538;2023-04-15T13:53:37;1.17;;;0.47;;
7515;SDS011;3799;47.184;8.538;2023-04-15T13:56:08;1.52;;;0.30;;
7515;SDS011;3799;47.184;8.538;2023-04-15T13:58:36;1.38;;;0.20;;
7515;SDS011;3799;47.184;8.538;2023-04-15T14:01:04;1.58;;;0.40;;
7515;SDS011;3799;47.184;8.538;2023-04-15T14:03:33;2.55;;;0.25;;
7515;SDS011;3799;47.184;8.538;2023-04-15T14:06:07;1.73;;;0.20;;
7515;SDS011;3799;47.184;8.538;2023-04-15T14:08:37;0.63;;;0.20;;
7515;SDS011;3799;47.184;8.538;2023-04-15T14:11:05;0.95;;;0.20;;
7515;SDS011;3799;47.184;8.538;2023-04-15T14:13:32;1.10;;;0.20;;
7515;SDS011;3799;47.184;8.538;2023-04-15T14:18:31;0.40;;;0.20;;
7515;SDS011;3799;47.184;8.538;2023-04-15T14:20:59;2.42;;;0.20;;
7515;SDS011;3799;47.184;8.538;2023-04-15T14:23:26;1.70;;;0.40;;
7515;SDS011;3799;47.184;8.538;2023-04-15T14:25:53;1.70;;;0.40;;
7515;SDS011;3799;47.184;8.538;2023-04-15T14:28:21;1.08;;;0.30;;
7515;SDS011;3799;47.184;8.538;2023-04-15T14:30:48;0.95;;;0.35;;
7515;SDS011;3799;47.184;8.538;2023-04-15T14:33:16;0.75;;;0.10;;
7515;SDS011;3799;47.184;8.538;2023-04-15T14:35:43;0.30;;;0.10;;
7515;SDS011;3799;47.184;8.538;2023-04-15T14:38:11;0.70;;;0.10;;
7515;SDS011;3799;47.184;8.538;2023-04-15T14:40:39;0.70;;;0.00;;
7515;SDS011;3799;47.184;8.538;2023-04-15T14:43:07;0.90;;;0.20;;
7515;SDS011;3799;47.184;8.538;2023-04-15T14:45:36;0.50;;;0.03;;
7515;SDS011;3799;47.184;8.538;2023-04-15T14:48:08;0.95;;;0.22;;
7515;SDS011;3799;47.184;8.538;2023-04-15T14:50:38;0.88;;;0.10;;
7515;SDS011;3799;47.184;8.538;2023-04-15T14:53:06;0.20;;;0.00;;
7515;SDS011;3799;47.184;8.538;2023-04-15T14:55:33;0.65;;;0.10;;
7515;SDS011;3799;47.184;8.538;2023-04-15T14:58:01;0.30;;;0.00;;
7515;SDS011;3799;47.184;8.538;2023-04-15T15:00:28;0.70;;;0.10;;
7515;SDS011;3799;47.184;8.538;2023-04-15T15:02:57;0.65;;;0.00;;
7515;SDS011;3799;47.184;8.538;2023-04-15T15:05:25;1.83;;;0.25;;
7515;SDS011;3799;47.184;8.538;2023-04-15T15:07:53;0.50;;;0.17;;
7515;SDS011;3799;47.184;8.538;2023-04-15T15:10:21;1.00;;;0.20;;
7515;SDS011;3799;47.184;8.538;2023-04-15T15:13:08;0.82;;;0.10;;
7515;SDS011;3799;47.184;8.538;2023-04-15T15:15:36;0.30;;;0.00;;
7515;SDS011;3799;47.184;8.538;2023-04-15T15:18:05;0.20;;;0.00;;
7515;SDS011;3799;47.184;8.538;2023-04-15T15:20:32;0.35;;;0.08;;
7515;SDS011;3799;47.184;8.538;2023-04-15T15:23:01;1.02;;;0.10;;
7515;SDS011;3799;47.184;8.538;2023-04-15T15:25:29;0.47;;;0.10;;
7515;SDS011;3799;47.184;8.538;2023-04-15T15:27:56;1.33;;;0.38;;
7515;SDS011;3799;47.184;8.538;2023-04-15T15:30:24;0.73;;;0.05;;
7515;SDS011;3799;47.184;8.538;2023-04-15T15:32:51;0.52;;;0.10;;
7515;SDS011;3799;47.184;8.538;2023-04-15T15:35:19;0.32;;;0.05;;
7515;SDS011;3799;47.184;8.538;2023-04-15T15:37:48;0.43;;;0.00;;
7515;SDS011;3799;47.184;8.538;2023-04-15T15:40:16;1.75;;;0.10;;
7515;SDS011;3799;47.184;8.538;2023-04-15T15:42:44;1.27;;;0.20;;
7515;SDS011;3799;47.184;8.538;2023-04-15T15:45:12;1.38;;;0.35;;
7515;SDS011;3799;47.184;8.538;2023-04-15T15:47:40;0.52;;;0.10;;
7515;SDS011;3799;47.184;8.538;2023-04-15T15:50:09;0.40;;;0.00;;
7515;SDS011;3799;47.184;8.538;2023-04-15T15:52:38;0.25;;;0.00;;
7515;SDS011;3799;47.184;8.538;2023-04-15T15:55:10;0.52;;;0.10;;
7515;SDS011;3799;47.184;8.538;2023-04-15T15:57:38;1.30;;;0.17;;
7515;SDS011;3799;47.184;8.538;2023-04-15T16:00:05;0.47;;;0.03;;
7515;SDS011;3799;47.184;8.538;2023-04-15T16:02:38;0.47;;;0.00;;
7515;SDS011;3799;47.184;8.538;2023-04-15T16:05:26;0.65;;;0.00;;